sensor_id;sensor_type;location;lat;lon;timestamp;temperature;humidity
780;DHT22;373;49.342;8.146;2022-07-29T00:01:48;23.30;1.00
780;DHT22;373;49.342;8.146;2022-07-29T00:04:19;23.20;1.00
780;DHT22;373;49.342;8.146;2022-07-29T00:06:46;23.40;1.00
780;DHT22;373;49.342;8.146;2022-07-29T00:09:13;23.30;1.00
780;DHT22;373;49.342;8.146;2022-07-29T00:11:40;23.30;1.00
780;DHT22;373;49.342;8.146;2022-07-29T00:14:08;23.40;1.00
780;DHT22;373;49.342;8.146;2022-07-29T00:16:35;23.40;1.00
780;DHT22;373;49.342;8.146;2022-07-29T00:19:03;23.40;1.00
780;DHT22;373;49.342;8.146;2022-07-29T00:21:31;23.50;1.00
780;DHT22;373;49.342;8.146;2022-07-29T00:23:58;23.50;1.00
780;DHT22;373;49.342;8.146;2022-07-29T00:26:25;23.50;1.00
780;DHT22;373;49.342;8.146;2022-07-29T00:28:58;23.50;1.00
780;DHT22;373;49.342;8.146;2022-07-29T00:31:25;23.40;1.00
780;DHT22;373;49.342;8.146;2022-07-29T00:33:52;23.40;1.00
780;DHT22;373;49.342;8.146;2022-07-29T00:36:19;23.30;1.00
780;DHT22;373;49.342;8.146;2022-07-29T00:38:48;23.40;1.00
780;DHT22;373;49.342;8.146;2022-07-29T00:41:15;23.50;1.00
780;DHT22;373;49.342;8.146;2022-07-29T00:43:42;23.40;1.00
780;DHT22;373;49.342;8.146;2022-07-29T00:46:10;23.50;1.00
780;DHT22;373;49.342;8.146;2022-07-29T00:48:37;23.30;1.00
780;DHT22;373;49.342;8.146;2022-07-29T00:51:06;23.30;1.00
780;DHT22;373;49.342;8.146;2022-07-29T00:53:35;23.40;1.00
780;DHT22;373;49.342;8.146;2022-07-29T00:56:04;23.40;1.00
780;DHT22;373;49.342;8.146;2022-07-29T00:58:31;23.40;1.00
780;DHT22;373;49.342;8.146;2022-07-29T01:00:58;23.30;1.00
780;DHT22;373;49.342;8.146;2022-07-29T01:03:26;23.00;1.00
780;DHT22;373;49.342;8.146;2022-07-29T01:05:53;22.70;1.00
780;DHT22;373;49.342;8.146;2022-07-29T01:08:21;22.50;1.00
780;DHT22;373;49.342;8.146;2022-07-29T01:10:49;22.40;1.00
780;DHT22;373;49.342;8.146;2022-07-29T01:13:19;22.30;1.00
780;DHT22;373;49.342;8.146;2022-07-29T01:15:52;22.10;1.00
780;DHT22;373;49.342;8.146;2022-07-29T01:18:24;22.10;1.00
780;DHT22;373;49.342;8.146;2022-07-29T01:21:13;21.90;1.00
780;DHT22;373;49.342;8.146;2022-07-29T01:23:56;22.20;1.00
780;DHT22;373;49.342;8.146;2022-07-29T01:26:38;22.30;1.00
780;DHT22;373;49.342;8.146;2022-07-29T01:29:14;22.40;1.00
780;DHT22;373;49.342;8.146;2022-07-29T01:31:47;22.50;1.00
780;DHT22;373;49.342;8.146;2022-07-29T01:34:21;22.60;1.00
780;DHT22;373;49.342;8.146;2022-07-29T01:36:51;22.60;1.00
780;DHT22;373;49.342;8.146;2022-07-29T01:39:25;22.50;1.00
780;DHT22;373;49.342;8.146;2022-07-29T01:41:57;22.40;1.00
780;DHT22;373;49.342;8.146;2022-07-29T01:44:31;22.30;1.00
780;DHT22;373;49.342;8.146;2022-07-29T01:47:08;22.20;1.00
780;DHT22;373;49.342;8.146;2022-07-29T01:49:41;22.10;1.00
780;DHT22;373;49.342;8.146;2022-07-29T01:52:16;22.00;1.00
780;DHT22;373;49.342;8.146;2022-07-29T01:54:50;21.90;1.00
780;DHT22;373;49.342;8.146;2022-07-29T01:57:21;21.80;1.00
780;DHT22;373;49.342;8.146;2022-07-29T01:59:54;21.80;1.00
780;DHT22;373;49.342;8.146;2022-07-29T02:02:23;21.70;1.00
780;DHT22;373;49.342;8.146;2022-07-29T02:04:53;21.50;1.00
780;DHT22;373;49.342;8.146;2022-07-29T02:07:21;21.40;1.00
780;DHT22;373;49.342;8.146;2022-07-29T02:09:50;21.40;1.00
780;DHT22;373;49.342;8.146;2022-07-29T02:12:19;21.30;1.00
780;DHT22;373;49.342;8.146;2022-07-29T02:14:50;21.30;1.60
780;DHT22;373;49.342;8.146;2022-07-29T02:17:23;21.20;6.40
780;DHT22;373;49.342;8.146;2022-07-29T02:19:53;21.30;11.50
780;DHT22;373;49.342;8.146;2022-07-29T02:22:23;21.20;14.70
780;DHT22;373;49.342;8.146;2022-07-29T02:24:51;21.20;18.10
780;DHT22;373;49.342;8.146;2022-07-29T02:27:22;21.30;20.30
780;DHT22;373;49.342;8.146;2022-07-29T02:29:51;21.40;18.70
780;DHT22;373;49.342;8.146;2022-07-29T02:32:21;21.30;16.10
780;DHT22;373;49.342;8.146;2022-07-29T02:34:50;21.30;18.00
780;DHT22;373;49.342;8.146;2022-07-29T02:37:18;21.50;15.80
780;DHT22;373;49.342;8.146;2022-07-29T02:39:45;21.70;9.20
780;DHT22;373;49.342;8.146;2022-07-29T02:42:17;21.70;4.00
780;DHT22;373;49.342;8.146;2022-07-29T02:44:45;21.70;6.90
780;DHT22;373;49.342;8.146;2022-07-29T02:47:19;21.90;2.40
780;DHT22;373;49.342;8.146;2022-07-29T02:49:54;22.10;3.50
780;DHT22;373;49.342;8.146;2022-07-29T02:52:26;22.20;1.00
780;DHT22;373;49.342;8.146;2022-07-29T02:54:56;22.00;1.90
780;DHT22;373;49.342;8.146;2022-07-29T02:57:31;21.90;13.10
780;DHT22;373;49.342;8.146;2022-07-29T03:00:02;22.00;5.10
780;DHT22;373;49.342;8.146;2022-07-29T03:02:33;22.00;4.50
780;DHT22;373;49.342;8.146;2022-07-29T03:05:04;22.20;2.80
780;DHT22;373;49.342;8.146;2022-07-29T03:07:34;22.30;1.00
780;DHT22;373;49.342;8.146;2022-07-29T03:10:02;22.20;1.00
780;DHT22;373;49.342;8.146;2022-07-29T03:12:30;22.00;2.90
780;DHT22;373;49.342;8.146;2022-07-29T03:14:59;21.90;4.70
780;DHT22;373;49.342;8.146;2022-07-29T03:17:27;21.90;7.00
780;DHT22;373;49.342;8.146;2022-07-29T03:19:55;21.90;5.60
780;DHT22;373;49.342;8.146;2022-07-29T03:22:23;21.70;10.00
780;DHT22;373;49.342;8.146;2022-07-29T03:24:51;21.30;27.60
780;DHT22;373;49.342;8.146;2022-07-29T03:27:18;21.30;23.50
780;DHT22;373;49.342;8.146;2022-07-29T03:29:45;21.00;31.60
780;DHT22;373;49.342;8.146;2022-07-29T03:32:12;20.90;47.90
780;DHT22;373;49.342;8.146;2022-07-29T03:34:39;20.90;56.60
780;DHT22;373;49.342;8.146;2022-07-29T03:37:06;20.70;67.30
780;DHT22;373;49.342;8.146;2022-07-29T03:39:39;20.60;96.90
780;DHT22;373;49.342;8.146;2022-07-29T03:42:09;20.40;99.90
780;DHT22;373;49.342;8.146;2022-07-29T03:44:37;20.40;99.90
780;DHT22;373;49.342;8.146;2022-07-29T03:47:06;20.40;99.90
780;DHT22;373;49.342;8.146;2022-07-29T03:49:36;20.50;99.90
780;DHT22;373;49.342;8.146;2022-07-29T03:52:05;20.50;99.90
780;DHT22;373;49.342;8.146;2022-07-29T03:54:33;20.40;99.90
780;DHT22;373;49.342;8.146;2022-07-29T03:57:02;20.20;99.90
780;DHT22;373;49.342;8.146;2022-07-29T03:59:32;20.20;99.90
780;DHT22;373;49.342;8.146;2022-07-29T04:02:00;20.10;99.90
780;DHT22;373;49.342;8.146;2022-07-29T04:04:28;20.00;99.90
780;DHT22;373;49.342;8.146;2022-07-29T04:06:55;19.90;99.90
780;DHT22;373;49.342;8.146;2022-07-29T04:09:22;19.80;99.90
780;DHT22;373;49.342;8.146;2022-07-29T04:11:50;19.70;99.90
780;DHT22;373;49.342;8.146;2022-07-29T04:14:19;19.50;99.90
780;DHT22;373;49.342;8.146;2022-07-29T04:16:46;19.50;1.00
780;DHT22;373;49.342;8.146;2022-07-29T04:19:13;19.50;1.00
780;DHT22;373;49.342;8.146;2022-07-29T04:21:40;19.70;1.00
780;DHT22;373;49.342;8.146;2022-07-29T04:24:08;19.70;1.00
780;DHT22;373;49.342;8.146;2022-07-29T04:26:35;19.70;1.00
780;DHT22;373;49.342;8.146;2022-07-29T04:29:02;19.60;1.00
780;DHT22;373;49.342;8.146;2022-07-29T04:31:31;19.60;1.00
780;DHT22;373;49.342;8.146;2022-07-29T04:33:58;19.50;1.00
780;DHT22;373;49.342;8.146;2022-07-29T04:36:25;19.60;1.00
780;DHT22;373;49.342;8.146;2022-07-29T04:38:52;19.50;1.00
780;DHT22;373;49.342;8.146;2022-07-29T04:41:19;19.50;1.00
780;DHT22;373;49.342;8.146;2022-07-29T04:43:46;19.50;1.00
780;DHT22;373;49.342;8.146;2022-07-29T04:46:13;19.40;1.00
780;DHT22;373;49.342;8.146;2022-07-29T04:48:42;19.40;1.00
780;DHT22;373;49.342;8.146;2022-07-29T04:51:09;19.60;1.00
780;DHT22;373;49.342;8.146;2022-07-29T04:53:36;19.80;1.00
780;DHT22;373;49.342;8.146;2022-07-29T04:56:04;19.90;1.00
780;DHT22;373;49.342;8.146;2022-07-29T04:58:31;19.90;1.00
780;DHT22;373;49.342;8.146;2022-07-29T05:01:00;20.00;1.00
780;DHT22;373;49.342;8.146;2022-07-29T05:03:27;20.10;99.90
780;DHT22;373;49.342;8.146;2022-07-29T05:05:56;20.10;99.90
780;DHT22;373;49.342;8.146;2022-07-29T05:08:23;20.20;99.90
780;DHT22;373;49.342;8.146;2022-07-29T05:10:50;20.20;99.90
780;DHT22;373;49.342;8.146;2022-07-29T05:13:17;20.20;99.90
780;DHT22;373;49.342;8.146;2022-07-29T05:15:44;20.40;99.90
780;DHT22;373;49.342;8.146;2022-07-29T05:18:11;20.60;99.90
780;DHT22;373;49.342;8.146;2022-07-29T05:20:38;20.60;99.90
780;DHT22;373;49.342;8.146;2022-07-29T05:23:07;20.70;99.90
780;DHT22;373;49.342;8.146;2022-07-29T05:25:34;20.70;99.90
780;DHT22;373;49.342;8.146;2022-07-29T05:28:01;20.80;99.90
780;DHT22;373;49.342;8.146;2022-07-29T05:30:28;20.90;99.90
780;DHT22;373;49.342;8.146;2022-07-29T05:32:55;21.00;99.90
780;DHT22;373;49.342;8.146;2022-07-29T05:35:22;21.10;99.90
780;DHT22;373;49.342;8.146;2022-07-29T05:37:49;21.30;99.90
780;DHT22;373;49.342;8.146;2022-07-29T05:40:18;21.60;99.90
780;DHT22;373;49.342;8.146;2022-07-29T05:42:46;21.70;99.90
780;DHT22;373;49.342;8.146;2022-07-29T05:45:13;21.70;99.90
780;DHT22;373;49.342;8.146;2022-07-29T05:47:41;21.70;99.90
780;DHT22;373;49.342;8.146;2022-07-29T05:50:08;21.80;99.90
780;DHT22;373;49.342;8.146;2022-07-29T05:52:36;22.00;99.90
780;DHT22;373;49.342;8.146;2022-07-29T05:55:03;22.40;99.90
780;DHT22;373;49.342;8.146;2022-07-29T05:57:32;22.50;99.90
780;DHT22;373;49.342;8.146;2022-07-29T05:59:59;22.70;99.90
780;DHT22;373;49.342;8.146;2022-07-29T06:02:26;23.00;99.90
780;DHT22;373;49.342;8.146;2022-07-29T06:04:53;23.10;99.70
780;DHT22;373;49.342;8.146;2022-07-29T06:07:21;23.30;97.50
780;DHT22;373;49.342;8.146;2022-07-29T06:09:48;23.40;92.50
780;DHT22;373;49.342;8.146;2022-07-29T06:12:15;23.60;90.40
780;DHT22;373;49.342;8.146;2022-07-29T06:14:43;23.80;80.40
780;DHT22;373;49.342;8.146;2022-07-29T06:17:11;23.90;80.70
780;DHT22;373;49.342;8.146;2022-07-29T06:19:38;23.90;79.70
780;DHT22;373;49.342;8.146;2022-07-29T06:22:05;23.70;82.90
780;DHT22;373;49.342;8.146;2022-07-29T06:24:32;23.90;70.10
780;DHT22;373;49.342;8.146;2022-07-29T06:26:59;23.70;74.20
780;DHT22;373;49.342;8.146;2022-07-29T06:29:26;24.00;70.50
780;DHT22;373;49.342;8.146;2022-07-29T06:31:55;24.50;59.80
780;DHT22;373;49.342;8.146;2022-07-29T06:34:22;24.60;62.10
780;DHT22;373;49.342;8.146;2022-07-29T06:36:49;24.90;60.70
780;DHT22;373;49.342;8.146;2022-07-29T06:39:18;25.00;62.90
780;DHT22;373;49.342;8.146;2022-07-29T06:41:46;25.00;62.20
780;DHT22;373;49.342;8.146;2022-07-29T06:44:13;25.70;71.80
780;DHT22;373;49.342;8.146;2022-07-29T06:46:41;26.40;99.90
780;DHT22;373;49.342;8.146;2022-07-29T06:49:09;26.40;99.90
780;DHT22;373;49.342;8.146;2022-07-29T06:51:38;26.70;99.90
780;DHT22;373;49.342;8.146;2022-07-29T06:54:05;27.10;99.90
780;DHT22;373;49.342;8.146;2022-07-29T06:56:33;27.10;99.90
780;DHT22;373;49.342;8.146;2022-07-29T06:59:02;26.70;99.90
780;DHT22;373;49.342;8.146;2022-07-29T07:01:30;26.50;99.90
780;DHT22;373;49.342;8.146;2022-07-29T07:03:57;26.90;99.90
780;DHT22;373;49.342;8.146;2022-07-29T07:06:26;27.10;1.00
780;DHT22;373;49.342;8.146;2022-07-29T07:08:53;27.50;1.00
780;DHT22;373;49.342;8.146;2022-07-29T07:11:20;28.10;1.00
780;DHT22;373;49.342;8.146;2022-07-29T07:13:48;28.30;1.00
780;DHT22;373;49.342;8.146;2022-07-29T07:16:15;28.30;1.00
780;DHT22;373;49.342;8.146;2022-07-29T07:18:42;28.70;1.00
780;DHT22;373;49.342;8.146;2022-07-29T07:21:11;28.40;1.00
780;DHT22;373;49.342;8.146;2022-07-29T07:23:39;27.70;1.00
780;DHT22;373;49.342;8.146;2022-07-29T07:26:06;27.20;1.00
780;DHT22;373;49.342;8.146;2022-07-29T07:28:34;27.20;1.00
780;DHT22;373;49.342;8.146;2022-07-29T07:31:01;27.40;1.00
780;DHT22;373;49.342;8.146;2022-07-29T07:33:28;27.40;1.00
780;DHT22;373;49.342;8.146;2022-07-29T07:35:55;26.90;1.00
780;DHT22;373;49.342;8.146;2022-07-29T07:38:22;26.60;1.00
780;DHT22;373;49.342;8.146;2022-07-29T07:40:51;26.60;1.80
780;DHT22;373;49.342;8.146;2022-07-29T07:43:18;26.40;1.40
780;DHT22;373;49.342;8.146;2022-07-29T07:45:45;26.40;1.80
780;DHT22;373;49.342;8.146;2022-07-29T07:48:12;26.50;1.00
780;DHT22;373;49.342;8.146;2022-07-29T07:50:39;26.40;1.00
780;DHT22;373;49.342;8.146;2022-07-29T07:53:06;26.20;1.00
780;DHT22;373;49.342;8.146;2022-07-29T07:55:33;26.10;1.00
780;DHT22;373;49.342;8.146;2022-07-29T07:58:02;26.20;1.00
780;DHT22;373;49.342;8.146;2022-07-29T08:00:29;26.50;1.00
780;DHT22;373;49.342;8.146;2022-07-29T08:02:56;26.40;4.20
780;DHT22;373;49.342;8.146;2022-07-29T08:05:23;27.00;1.00
780;DHT22;373;49.342;8.146;2022-07-29T08:07:50;27.30;1.00
780;DHT22;373;49.342;8.146;2022-07-29T08:10:18;27.10;1.00
780;DHT22;373;49.342;8.146;2022-07-29T08:13:03;27.10;1.00
780;DHT22;373;49.342;8.146;2022-07-29T08:15:30;27.40;1.00
780;DHT22;373;49.342;8.146;2022-07-29T08:17:57;27.20;1.00
780;DHT22;373;49.342;8.146;2022-07-29T08:20:25;27.20;1.00
780;DHT22;373;49.342;8.146;2022-07-29T08:22:52;27.50;1.00
780;DHT22;373;49.342;8.146;2022-07-29T08:25:19;28.00;1.00
780;DHT22;373;49.342;8.146;2022-07-29T08:27:47;27.50;1.00
780;DHT22;373;49.342;8.146;2022-07-29T08:30:15;27.10;1.00
780;DHT22;373;49.342;8.146;2022-07-29T08:32:42;26.70;1.00
780;DHT22;373;49.342;8.146;2022-07-29T08:35:10;26.60;2.80
780;DHT22;373;49.342;8.146;2022-07-29T08:37:37;26.70;3.70
780;DHT22;373;49.342;8.146;2022-07-29T08:40:05;26.50;6.90
780;DHT22;373;49.342;8.146;2022-07-29T08:42:32;26.30;8.10
780;DHT22;373;49.342;8.146;2022-07-29T08:44:59;26.20;8.60
780;DHT22;373;49.342;8.146;2022-07-29T08:47:28;26.40;12.30
780;DHT22;373;49.342;8.146;2022-07-29T08:49:56;26.40;16.80
780;DHT22;373;49.342;8.146;2022-07-29T08:52:25;26.80;20.30
780;DHT22;373;49.342;8.146;2022-07-29T08:54:52;26.50;17.10
780;DHT22;373;49.342;8.146;2022-07-29T08:57:21;26.10;19.60
780;DHT22;373;49.342;8.146;2022-07-29T08:59:50;26.30;21.90
780;DHT22;373;49.342;8.146;2022-07-29T09:02:20;26.60;19.30
780;DHT22;373;49.342;8.146;2022-07-29T09:04:49;26.50;20.50
780;DHT22;373;49.342;8.146;2022-07-29T09:07:18;27.10;20.00
780;DHT22;373;49.342;8.146;2022-07-29T09:09:45;26.90;14.70
780;DHT22;373;49.342;8.146;2022-07-29T09:12:13;26.40;15.60
780;DHT22;373;49.342;8.146;2022-07-29T09:14:41;26.20;20.30
780;DHT22;373;49.342;8.146;2022-07-29T09:17:08;26.30;24.20
780;DHT22;373;49.342;8.146;2022-07-29T09:19:36;26.20;22.40
780;DHT22;373;49.342;8.146;2022-07-29T09:22:06;26.70;20.90
780;DHT22;373;49.342;8.146;2022-07-29T09:24:40;26.40;23.80
780;DHT22;373;49.342;8.146;2022-07-29T09:27:18;26.50;23.60
780;DHT22;373;49.342;8.146;2022-07-29T09:29:46;26.80;18.70
780;DHT22;373;49.342;8.146;2022-07-29T09:32:14;27.50;18.30
780;DHT22;373;49.342;8.146;2022-07-29T09:34:41;28.00;16.30
780;DHT22;373;49.342;8.146;2022-07-29T09:37:09;28.10;7.40
780;DHT22;373;49.342;8.146;2022-07-29T09:39:39;27.40;8.50
780;DHT22;373;49.342;8.146;2022-07-29T09:42:12;27.20;9.60
780;DHT22;373;49.342;8.146;2022-07-29T09:44:44;27.60;10.80
780;DHT22;373;49.342;8.146;2022-07-29T09:47:11;27.90;7.60
780;DHT22;373;49.342;8.146;2022-07-29T09:49:54;27.60;6.90
780;DHT22;373;49.342;8.146;2022-07-29T09:52:26;26.60;7.70
780;DHT22;373;49.342;8.146;2022-07-29T09:54:53;27.10;8.90
780;DHT22;373;49.342;8.146;2022-07-29T09:57:31;27.00;5.60
780;DHT22;373;49.342;8.146;2022-07-29T09:59:59;26.90;6.10
780;DHT22;373;49.342;8.146;2022-07-29T10:02:39;27.10;3.60
780;DHT22;373;49.342;8.146;2022-07-29T10:05:16;27.10;7.90
780;DHT22;373;49.342;8.146;2022-07-29T10:07:46;28.00;3.90
780;DHT22;373;49.342;8.146;2022-07-29T10:10:20;28.50;5.50
780;DHT22;373;49.342;8.146;2022-07-29T10:12:53;29.10;1.00
780;DHT22;373;49.342;8.146;2022-07-29T10:15:22;29.00;1.00
780;DHT22;373;49.342;8.146;2022-07-29T10:17:50;28.80;1.00
780;DHT22;373;49.342;8.146;2022-07-29T10:20:17;29.30;1.00
780;DHT22;373;49.342;8.146;2022-07-29T10:22:47;29.40;1.00
780;DHT22;373;49.342;8.146;2022-07-29T10:25:15;28.90;1.00
780;DHT22;373;49.342;8.146;2022-07-29T10:27:42;29.20;1.00
780;DHT22;373;49.342;8.146;2022-07-29T10:30:10;28.90;1.00
780;DHT22;373;49.342;8.146;2022-07-29T10:32:54;29.00;1.00
780;DHT22;373;49.342;8.146;2022-07-29T10:35:40;28.70;1.00
780;DHT22;373;49.342;8.146;2022-07-29T10:38:30;28.00;1.00
780;DHT22;373;49.342;8.146;2022-07-29T10:41:11;28.00;1.00
780;DHT22;373;49.342;8.146;2022-07-29T10:43:58;27.80;1.00
780;DHT22;373;49.342;8.146;2022-07-29T10:46:27;27.90;1.00
780;DHT22;373;49.342;8.146;2022-07-29T10:49:08;27.60;1.00
780;DHT22;373;49.342;8.146;2022-07-29T10:52:02;27.70;1.00
780;DHT22;373;49.342;8.146;2022-07-29T10:54:42;28.40;1.00
780;DHT22;373;49.342;8.146;2022-07-29T10:57:12;29.70;1.00
780;DHT22;373;49.342;8.146;2022-07-29T10:59:40;30.00;1.00
780;DHT22;373;49.342;8.146;2022-07-29T11:02:41;30.00;1.00
780;DHT22;373;49.342;8.146;2022-07-29T11:05:10;30.30;1.00
780;DHT22;373;49.342;8.146;2022-07-29T11:07:40;30.00;1.00
780;DHT22;373;49.342;8.146;2022-07-29T11:10:28;29.60;1.00
780;DHT22;373;49.342;8.146;2022-07-29T11:12:55;30.00;1.00
780;DHT22;373;49.342;8.146;2022-07-29T11:15:24;30.30;1.00
780;DHT22;373;49.342;8.146;2022-07-29T11:18:04;30.60;1.00
780;DHT22;373;49.342;8.146;2022-07-29T11:20:36;30.40;1.00
780;DHT22;373;49.342;8.146;2022-07-29T11:23:18;30.00;1.00
780;DHT22;373;49.342;8.146;2022-07-29T11:26:13;29.70;1.00
780;DHT22;373;49.342;8.146;2022-07-29T11:28:54;29.30;1.00
780;DHT22;373;49.342;8.146;2022-07-29T11:31:33;29.60;1.00
780;DHT22;373;49.342;8.146;2022-07-29T11:34:26;29.70;1.00
780;DHT22;373;49.342;8.146;2022-07-29T11:37:14;29.80;1.00
780;DHT22;373;49.342;8.146;2022-07-29T11:39:42;29.70;1.00
780;DHT22;373;49.342;8.146;2022-07-29T11:42:40;29.90;1.00
780;DHT22;373;49.342;8.146;2022-07-29T11:45:11;30.10;1.00
780;DHT22;373;49.342;8.146;2022-07-29T11:47:40;30.10;1.00
780;DHT22;373;49.342;8.146;2022-07-29T11:50:09;30.40;1.00
780;DHT22;373;49.342;8.146;2022-07-29T11:52:38;30.80;1.00
780;DHT22;373;49.342;8.146;2022-07-29T11:55:09;30.30;1.00
780;DHT22;373;49.342;8.146;2022-07-29T11:57:47;29.80;1.00
780;DHT22;373;49.342;8.146;2022-07-29T12:00:22;29.60;1.00
780;DHT22;373;49.342;8.146;2022-07-29T12:02:50;29.50;1.00
780;DHT22;373;49.342;8.146;2022-07-29T12:05:17;29.60;1.00
780;DHT22;373;49.342;8.146;2022-07-29T12:07:45;29.60;1.00
780;DHT22;373;49.342;8.146;2022-07-29T12:10:13;29.90;1.00
780;DHT22;373;49.342;8.146;2022-07-29T12:12:40;29.90;1.00
780;DHT22;373;49.342;8.146;2022-07-29T12:15:14;29.90;1.00
780;DHT22;373;49.342;8.146;2022-07-29T12:17:43;29.80;1.00
780;DHT22;373;49.342;8.146;2022-07-29T12:20:10;29.70;1.00
780;DHT22;373;49.342;8.146;2022-07-29T12:22:40;29.80;1.00
780;DHT22;373;49.342;8.146;2022-07-29T12:25:11;29.80;1.00
780;DHT22;373;49.342;8.146;2022-07-29T12:27:41;30.00;1.00
780;DHT22;373;49.342;8.146;2022-07-29T12:30:11;29.80;1.00
780;DHT22;373;49.342;8.146;2022-07-29T12:32:42;30.00;1.00
780;DHT22;373;49.342;8.146;2022-07-29T12:35:11;30.30;1.00
780;DHT22;373;49.342;8.146;2022-07-29T12:37:41;30.50;1.00
780;DHT22;373;49.342;8.146;2022-07-29T12:40:10;30.60;1.00
780;DHT22;373;49.342;8.146;2022-07-29T12:42:38;29.90;1.00
780;DHT22;373;49.342;8.146;2022-07-29T12:45:07;29.80;1.00
780;DHT22;373;49.342;8.146;2022-07-29T12:47:53;29.60;1.00
780;DHT22;373;49.342;8.146;2022-07-29T12:50:21;29.80;1.00
780;DHT22;373;49.342;8.146;2022-07-29T12:52:48;29.90;1.00
780;DHT22;373;49.342;8.146;2022-07-29T12:55:15;30.50;1.00
780;DHT22;373;49.342;8.146;2022-07-29T12:57:46;30.90;1.00
780;DHT22;373;49.342;8.146;2022-07-29T13:00:15;31.20;1.00
780;DHT22;373;49.342;8.146;2022-07-29T13:02:43;31.90;1.00
780;DHT22;373;49.342;8.146;2022-07-29T13:05:11;32.00;1.00
780;DHT22;373;49.342;8.146;2022-07-29T13:07:39;30.80;1.00
780;DHT22;373;49.342;8.146;2022-07-29T13:10:12;30.40;1.00
780;DHT22;373;49.342;8.146;2022-07-29T13:13:01;30.60;1.00
780;DHT22;373;49.342;8.146;2022-07-29T13:15:29;30.70;1.00
780;DHT22;373;49.342;8.146;2022-07-29T13:17:56;30.70;1.00
780;DHT22;373;49.342;8.146;2022-07-29T13:20:27;30.40;1.00
780;DHT22;373;49.342;8.146;2022-07-29T13:22:57;30.30;1.00
780;DHT22;373;49.342;8.146;2022-07-29T13:25:27;30.30;1.00
780;DHT22;373;49.342;8.146;2022-07-29T13:27:55;30.40;1.00
780;DHT22;373;49.342;8.146;2022-07-29T13:30:23;30.70;1.00
780;DHT22;373;49.342;8.146;2022-07-29T13:32:51;30.80;1.00
780;DHT22;373;49.342;8.146;2022-07-29T13:35:18;30.20;1.00
780;DHT22;373;49.342;8.146;2022-07-29T13:37:47;30.00;1.00
780;DHT22;373;49.342;8.146;2022-07-29T13:40:14;30.10;1.00
780;DHT22;373;49.342;8.146;2022-07-29T13:42:41;30.30;1.00
780;DHT22;373;49.342;8.146;2022-07-29T13:45:09;30.50;1.00
780;DHT22;373;49.342;8.146;2022-07-29T13:47:37;30.60;1.00
780;DHT22;373;49.342;8.146;2022-07-29T13:50:06;30.90;1.00
780;DHT22;373;49.342;8.146;2022-07-29T13:52:35;31.20;1.00
780;DHT22;373;49.342;8.146;2022-07-29T13:55:06;31.10;1.00
780;DHT22;373;49.342;8.146;2022-07-29T13:57:33;30.90;1.00
780;DHT22;373;49.342;8.146;2022-07-29T14:00:01;30.80;1.00
780;DHT22;373;49.342;8.146;2022-07-29T14:02:34;30.50;1.00
780;DHT22;373;49.342;8.146;2022-07-29T14:05:01;30.60;1.00
780;DHT22;373;49.342;8.146;2022-07-29T14:07:28;30.60;1.00
780;DHT22;373;49.342;8.146;2022-07-29T14:09:55;30.40;1.00
780;DHT22;373;49.342;8.146;2022-07-29T14:12:24;30.20;1.00
780;DHT22;373;49.342;8.146;2022-07-29T14:14:51;30.10;1.00
780;DHT22;373;49.342;8.146;2022-07-29T14:17:18;30.40;1.00
780;DHT22;373;49.342;8.146;2022-07-29T14:19:45;30.20;1.00
780;DHT22;373;49.342;8.146;2022-07-29T14:22:12;30.60;1.00
780;DHT22;373;49.342;8.146;2022-07-29T14:24:40;30.80;1.00
780;DHT22;373;49.342;8.146;2022-07-29T14:27:07;31.20;1.00
780;DHT22;373;49.342;8.146;2022-07-29T14:29:36;31.10;1.00
780;DHT22;373;49.342;8.146;2022-07-29T14:32:03;30.40;1.00
780;DHT22;373;49.342;8.146;2022-07-29T14:34:31;30.40;1.00
780;DHT22;373;49.342;8.146;2022-07-29T14:36:58;30.30;1.00
780;DHT22;373;49.342;8.146;2022-07-29T14:39:25;30.40;1.00
780;DHT22;373;49.342;8.146;2022-07-29T14:41:52;30.60;1.00
780;DHT22;373;49.342;8.146;2022-07-29T14:44:19;30.20;1.00
780;DHT22;373;49.342;8.146;2022-07-29T14:46:47;30.10;1.00
780;DHT22;373;49.342;8.146;2022-07-29T14:49:15;30.20;1.00
780;DHT22;373;49.342;8.146;2022-07-29T14:51:45;30.40;1.00
780;DHT22;373;49.342;8.146;2022-07-29T14:54:12;30.50;1.00
780;DHT22;373;49.342;8.146;2022-07-29T14:56:40;30.40;1.00
780;DHT22;373;49.342;8.146;2022-07-29T14:59:07;30.50;1.00
780;DHT22;373;49.342;8.146;2022-07-29T15:01:34;30.90;1.00
780;DHT22;373;49.342;8.146;2022-07-29T15:04:03;31.30;1.00
780;DHT22;373;49.342;8.146;2022-07-29T15:06:30;31.10;1.00
780;DHT22;373;49.342;8.146;2022-07-29T15:08:57;31.20;1.00
780;DHT22;373;49.342;8.146;2022-07-29T15:11:24;30.90;1.00
780;DHT22;373;49.342;8.146;2022-07-29T15:13:52;31.00;1.00
780;DHT22;373;49.342;8.146;2022-07-29T15:16:19;31.20;1.00
780;DHT22;373;49.342;8.146;2022-07-29T15:18:46;31.50;1.00
780;DHT22;373;49.342;8.146;2022-07-29T15:21:14;31.70;1.00
780;DHT22;373;49.342;8.146;2022-07-29T15:23:41;31.40;1.00
780;DHT22;373;49.342;8.146;2022-07-29T15:26:08;31.70;1.00
780;DHT22;373;49.342;8.146;2022-07-29T15:28:36;31.80;1.00
780;DHT22;373;49.342;8.146;2022-07-29T15:31:03;31.50;1.00
780;DHT22;373;49.342;8.146;2022-07-29T15:33:30;31.20;1.00
780;DHT22;373;49.342;8.146;2022-07-29T15:35:57;30.90;1.00
780;DHT22;373;49.342;8.146;2022-07-29T15:38:26;31.00;1.00
780;DHT22;373;49.342;8.146;2022-07-29T15:40:53;31.40;1.00
780;DHT22;373;49.342;8.146;2022-07-29T15:43:20;31.60;1.00
780;DHT22;373;49.342;8.146;2022-07-29T15:45:47;31.60;1.00
780;DHT22;373;49.342;8.146;2022-07-29T15:48:28;31.30;1.00
780;DHT22;373;49.342;8.146;2022-07-29T15:50:55;31.20;1.00
780;DHT22;373;49.342;8.146;2022-07-29T15:53:22;31.10;1.00
780;DHT22;373;49.342;8.146;2022-07-29T15:55:51;31.20;1.00
780;DHT22;373;49.342;8.146;2022-07-29T15:58:19;31.50;1.00
780;DHT22;373;49.342;8.146;2022-07-29T16:00:46;31.40;1.00
780;DHT22;373;49.342;8.146;2022-07-29T16:03:13;31.10;1.00
780;DHT22;373;49.342;8.146;2022-07-29T16:05:41;30.80;1.00
780;DHT22;373;49.342;8.146;2022-07-29T16:08:08;31.10;1.00
780;DHT22;373;49.342;8.146;2022-07-29T16:10:35;31.20;1.00
780;DHT22;373;49.342;8.146;2022-07-29T16:13:04;30.80;1.00
780;DHT22;373;49.342;8.146;2022-07-29T16:15:31;30.60;1.00
780;DHT22;373;49.342;8.146;2022-07-29T16:17:59;30.70;1.00
780;DHT22;373;49.342;8.146;2022-07-29T16:20:26;30.70;1.00
780;DHT22;373;49.342;8.146;2022-07-29T16:22:53;30.90;1.00
780;DHT22;373;49.342;8.146;2022-07-29T16:25:20;31.10;1.00
780;DHT22;373;49.342;8.146;2022-07-29T16:27:47;30.80;1.00
780;DHT22;373;49.342;8.146;2022-07-29T16:30:16;30.70;1.00
780;DHT22;373;49.342;8.146;2022-07-29T16:32:43;30.70;1.00
780;DHT22;373;49.342;8.146;2022-07-29T16:35:10;30.70;1.00
780;DHT22;373;49.342;8.146;2022-07-29T16:37:37;30.50;1.00
780;DHT22;373;49.342;8.146;2022-07-29T16:40:06;30.80;1.00
780;DHT22;373;49.342;8.146;2022-07-29T16:42:34;31.10;1.00
780;DHT22;373;49.342;8.146;2022-07-29T16:45:01;31.30;1.00
780;DHT22;373;49.342;8.146;2022-07-29T16:47:29;31.10;1.00
780;DHT22;373;49.342;8.146;2022-07-29T16:49:57;30.80;1.00
780;DHT22;373;49.342;8.146;2022-07-29T16:52:24;30.30;1.00
780;DHT22;373;49.342;8.146;2022-07-29T16:54:51;30.20;1.00
780;DHT22;373;49.342;8.146;2022-07-29T16:57:18;30.10;1.00
780;DHT22;373;49.342;8.146;2022-07-29T16:59:46;30.00;1.00
780;DHT22;373;49.342;8.146;2022-07-29T17:02:14;30.20;1.00